Terminal Aerodrome Forecast
Issued by NWS Burlington, VT

Home | Current Version | Previous Version | Text Only | Print | Product List | Glossary On
Versions: 1 2 3 4 5 6 7 8 9 10 11 12 13 14 15 16 17 18 19
000
FTUS41 KBTV 122320
TAFBTV
TAF
KBTV 122320Z 1300/1324 19013G20KT P6SM SKC
     FM130400 19012KT P6SM VCSH OVC020
     FM130500 19012KT 2SM -SHSN BR OVC008
      TEMPO 1305/1307 1/2SM SHSN FZFG VV008
     FM130700 29012G22KT 6SM -SHSN OVC020
     FM130900 30012G18KT P6SM VCSH OVC035
     FM131300 31013G25KT P6SM SCT045=

USA.gov is the U.S. government's official web portal to all federal, state and local government web resources and services.